createdAt,value
2022-10-17T00:01:14.715Z,8.13
2022-10-17T00:04:01.577Z,8.05
2022-10-17T00:06:48.594Z,9.38
2022-10-17T00:09:35.970Z,7.80
2022-10-17T00:12:23.176Z,7.72
2022-10-17T00:15:16.013Z,7.65
2022-10-17T00:18:03.522Z,7.53
2022-10-17T00:20:50.494Z,8.23
2022-10-17T00:23:37.813Z,10.80
2022-10-17T00:26:24.981Z,6.75
2022-10-17T00:29:12.080Z,6.95
2022-10-17T00:32:00.993Z,9.93
2022-10-17T00:34:48.144Z,8.60
2022-10-17T00:37:35.513Z,6.70
2022-10-17T00:40:22.801Z,6.47
2022-10-17T00:43:16.387Z,7.45
2022-10-17T00:46:03.755Z,6.53
2022-10-17T00:48:55.240Z,7.85
2022-10-17T00:51:46.245Z,9.57
2022-10-17T00:54:35.501Z,8.63
2022-10-17T00:57:22.759Z,6.53
2022-10-17T01:00:12.251Z,6.97
2022-10-17T01:02:59.363Z,6.82
2022-10-17T01:05:48.016Z,9.38
2022-10-17T01:08:35.442Z,7.45
2022-10-17T01:11:38.912Z,8.38
2022-10-17T01:14:32.340Z,11.18
2022-10-17T01:17:28.521Z,7.05
2022-10-17T01:20:44.511Z,5.38
2022-10-17T01:24:11.676Z,5.15
2022-10-17T01:27:38.413Z,7.35
2022-10-17T01:30:51.930Z,5.47
2022-10-17T01:33:50.008Z,6.68
2022-10-17T01:36:41.045Z,6.97
2022-10-17T01:39:43.986Z,4.53
2022-10-17T01:42:39.161Z,5.20
2022-10-17T01:45:32.560Z,4.47
2022-10-17T01:48:25.251Z,5.90
2022-10-17T01:51:19.021Z,5.97
2022-10-17T01:54:12.450Z,4.70
2022-10-17T01:57:02.565Z,5.38
2022-10-17T01:59:54.002Z,4.07
2022-10-17T02:02:44.201Z,4.55
2022-10-17T02:05:34.532Z,5.07
2022-10-17T02:08:31.058Z,4.45
2022-10-17T02:11:20.426Z,4.75
2022-10-17T02:14:20.970Z,6.53
2022-10-17T02:17:17.618Z,5.25
2022-10-17T02:20:17.814Z,4.35
2022-10-17T02:23:12.858Z,4.43
2022-10-17T02:26:11.017Z,4.10
2022-10-17T02:29:07.713Z,4.32
2022-10-17T02:31:59.506Z,4.22
2022-10-17T02:34:49.237Z,4.20
2022-10-17T02:37:37.289Z,4.40
2022-10-17T02:40:26.004Z,4.85
2022-10-17T02:43:15.346Z,3.83
2022-10-17T02:46:02.379Z,3.85
2022-10-17T02:48:53.266Z,5.10
2022-10-17T02:51:46.126Z,4.35
2022-10-17T02:54:38.513Z,3.63
2022-10-17T02:57:31.522Z,3.90
2022-10-17T03:00:22.244Z,5.10
2022-10-17T03:03:21.105Z,3.30
2022-10-17T03:06:08.178Z,3.80
2022-10-17T03:08:55.357Z,5.15
2022-10-17T03:11:42.943Z,5.32
2022-10-17T03:14:30.054Z,5.70
2022-10-17T03:17:18.617Z,4.45
2022-10-17T03:20:07.559Z,4.15
2022-10-17T03:22:54.641Z,6.65
2022-10-17T03:25:43.154Z,4.30
2022-10-17T03:28:31.752Z,4.40
2022-10-17T03:31:19.456Z,4.07
2022-10-17T03:34:09.029Z,3.42
2022-10-17T03:36:56.197Z,4.40
2022-10-17T03:39:43.738Z,4.78
2022-10-17T03:42:30.726Z,4.03
2022-10-17T03:45:18.503Z,5.63
2022-10-17T03:48:07.425Z,5.47
2022-10-17T03:51:00.213Z,4.68
2022-10-17T03:53:47.211Z,4.43
2022-10-17T03:56:34.494Z,4.43
2022-10-17T03:59:24.561Z,4.15
2022-10-17T04:02:21.031Z,4.97
2022-10-17T04:05:09.839Z,5.90
2022-10-17T04:08:00.995Z,4.35
2022-10-17T04:11:14.461Z,4.90
2022-10-17T04:14:02.228Z,4.45
2022-10-17T04:16:50.102Z,5.00
2022-10-17T04:19:40.676Z,4.70
2022-10-17T04:22:28.743Z,7.75
2022-10-17T04:25:18.799Z,4.65
2022-10-17T04:28:07.057Z,4.80
2022-10-17T04:30:58.272Z,4.90
2022-10-17T04:33:48.584Z,6.38
2022-10-17T04:36:35.803Z,4.80
2022-10-17T04:39:23.389Z,5.63
2022-10-17T04:42:12.105Z,4.07
2022-10-17T04:45:00.171Z,4.50
2022-10-17T04:47:47.549Z,5.88
2022-10-17T04:50:34.770Z,4.03
2022-10-17T04:53:44.033Z,3.85
2022-10-17T04:56:32.350Z,3.65
2022-10-17T04:59:20.831Z,3.55
2022-10-17T05:02:13.289Z,4.90
2022-10-17T05:05:00.550Z,7.28
2022-10-17T05:07:47.833Z,4.78
2022-10-17T05:10:39.604Z,4.97
2022-10-17T05:13:27.395Z,4.68
2022-10-17T05:16:15.667Z,5.65
2022-10-17T05:19:03.593Z,5.22
2022-10-17T05:21:56.862Z,5.00
2022-10-17T05:24:43.918Z,5.57
2022-10-17T05:27:32.173Z,6.30
2022-10-17T05:30:19.546Z,6.35
2022-10-17T05:33:09.726Z,7.72
2022-10-17T05:35:57.366Z,13.07
2022-10-17T05:38:44.283Z,5.20
2022-10-17T05:41:32.214Z,5.45
2022-10-17T05:44:19.485Z,6.03
2022-10-17T05:47:12.661Z,4.53
2022-10-17T05:50:00.830Z,5.78
2022-10-17T05:52:55.069Z,5.25
2022-10-17T05:55:42.686Z,4.40
2022-10-17T05:58:49.218Z,6.32
2022-10-17T06:01:56.494Z,5.43
2022-10-17T06:04:45.954Z,4.93
2022-10-17T06:07:36.523Z,4.75
2022-10-17T06:10:25.550Z,5.05
2022-10-17T06:13:13.423Z,4.45
2022-10-17T06:16:00.861Z,5.53
2022-10-17T06:21:40.718Z,5.53
2022-10-17T06:24:42.294Z,5.25
2022-10-17T06:27:29.714Z,4.85
2022-10-17T06:30:16.817Z,7.20
2022-10-17T06:33:05.695Z,5.22
2022-10-17T06:35:53.504Z,5.18
2022-10-17T06:38:42.006Z,6.60
2022-10-17T06:41:39.557Z,4.55
2022-10-17T06:44:30.571Z,6.00
2022-10-17T06:47:52.643Z,5.00
2022-10-17T06:51:00.538Z,4.57
2022-10-17T06:53:48.462Z,6.22
2022-10-17T06:56:57.949Z,4.53
2022-10-17T07:00:00.470Z,4.70
2022-10-17T07:02:54.936Z,5.60
2022-10-17T07:05:41.938Z,4.43
2022-10-17T07:08:29.771Z,4.78
2022-10-17T07:11:19.152Z,4.22
2022-10-17T07:14:07.487Z,4.82
2022-10-17T07:16:54.859Z,4.90
2022-10-17T07:19:44.551Z,4.18
2022-10-17T07:22:32.275Z,4.35
2022-10-17T07:25:19.782Z,4.00
2022-10-17T07:28:13.195Z,4.22
2022-10-17T07:31:06.044Z,5.03
2022-10-17T07:33:53.690Z,4.82
2022-10-17T07:36:41.574Z,4.85
2022-10-17T07:39:29.738Z,3.97
2022-10-17T07:42:17.093Z,4.10
2022-10-17T07:45:05.529Z,4.97
2022-10-17T07:47:57.124Z,4.07
2022-10-17T07:50:43.998Z,3.85
2022-10-17T07:53:31.278Z,5.68
2022-10-17T07:56:18.450Z,3.30
2022-10-17T07:59:08.499Z,4.45
2022-10-17T08:01:56.756Z,3.03
2022-10-17T08:04:45.274Z,3.22
2022-10-17T08:07:33.411Z,3.10
2022-10-17T08:10:20.810Z,4.15
2022-10-17T08:13:08.103Z,4.22
2022-10-17T08:15:55.269Z,4.07
2022-10-17T08:18:43.679Z,2.88
2022-10-17T08:21:32.243Z,2.88
2022-10-17T08:24:19.415Z,2.22
2022-10-17T08:27:11.350Z,2.33
2022-10-17T08:29:58.315Z,2.60
2022-10-17T08:32:45.393Z,2.35
2022-10-17T08:35:32.419Z,2.20
2022-10-17T08:38:21.107Z,3.20
2022-10-17T08:41:16.370Z,1.98
2022-10-17T08:44:13.944Z,2.28
2022-10-17T08:47:07.484Z,2.33
2022-10-17T08:49:57.994Z,2.88
2022-10-17T08:52:50.059Z,3.28
2022-10-17T08:55:44.419Z,2.13
2022-10-17T08:58:36.311Z,3.28
2022-10-17T09:01:37.588Z,3.65
2022-10-17T09:04:50.097Z,2.50
2022-10-17T09:07:43.279Z,2.05
2022-10-17T09:10:42.629Z,2.10
2022-10-17T09:13:46.892Z,2.17
2022-10-17T09:16:45.998Z,2.30
2022-10-17T09:19:36.037Z,4.30
2022-10-17T09:22:26.286Z,1.98
2022-10-17T09:25:17.509Z,1.95
2022-10-17T09:28:13.500Z,2.20
2022-10-17T09:31:03.951Z,3.50
2022-10-17T09:33:54.555Z,1.90
2022-10-17T09:36:42.479Z,2.10
2022-10-17T09:39:31.968Z,2.22
2022-10-17T09:42:22.293Z,2.35
2022-10-17T09:45:19.569Z,3.35
2022-10-17T09:48:16.992Z,1.90
2022-10-17T09:51:15.178Z,2.83
2022-10-17T09:54:20.746Z,4.53
2022-10-17T09:57:10.393Z,1.88
2022-10-17T10:00:00.697Z,2.05
2022-10-17T10:02:48.911Z,2.58
2022-10-17T10:05:36.153Z,2.10
2022-10-17T10:08:26.682Z,2.60
2022-10-17T10:11:14.044Z,2.33
2022-10-17T10:14:12.939Z,3.33
2022-10-17T10:17:00.151Z,2.25
2022-10-17T10:19:52.997Z,2.22
2022-10-17T10:22:40.433Z,4.18
2022-10-17T10:25:27.649Z,1.88
2022-10-17T10:28:17.735Z,2.55
2022-10-17T10:31:08.175Z,2.40
2022-10-17T10:33:57.541Z,3.28
2022-10-17T10:36:51.121Z,2.40
2022-10-17T10:39:49.694Z,2.10
2022-10-17T10:42:40.548Z,2.10
2022-10-17T10:45:46.967Z,2.38
2022-10-17T10:48:37.213Z,2.60
2022-10-17T10:51:29.649Z,2.17
2022-10-17T10:54:25.152Z,2.75
2022-10-17T10:57:20.071Z,1.80
2022-10-17T11:00:13.743Z,2.38
2022-10-17T11:03:11.748Z,3.25
2022-10-17T11:06:05.194Z,1.40
2022-10-17T11:09:00.212Z,2.40
2022-10-17T11:11:55.661Z,1.98
2022-10-17T11:14:48.071Z,2.42
2022-10-17T11:17:40.934Z,2.85
2022-10-17T11:20:35.147Z,2.55
2022-10-17T11:23:27.397Z,2.30
2022-10-17T11:26:25.814Z,2.10
2022-10-17T11:29:14.981Z,1.83
2022-10-17T11:32:07.029Z,1.77
2022-10-17T11:34:59.996Z,1.77
2022-10-17T11:37:53.669Z,1.95
2022-10-17T11:40:45.914Z,2.28
2022-10-17T11:43:37.211Z,2.10
2022-10-17T11:46:27.527Z,2.28
2022-10-17T11:49:20.442Z,1.98
2022-10-17T11:52:43.959Z,4.15
2022-10-17T11:55:30.774Z,3.05
2022-10-17T11:58:31.012Z,2.30
2022-10-17T12:01:32.541Z,2.03
2022-10-17T12:04:27.339Z,1.98
2022-10-17T12:07:20.888Z,2.10
2022-10-17T12:10:25.153Z,2.35
2022-10-17T12:13:47.902Z,2.72
2022-10-17T12:16:46.730Z,2.60
2022-10-17T12:19:35.993Z,2.22
2022-10-17T12:22:25.989Z,2.13
2022-10-17T12:25:19.786Z,2.25
2022-10-17T12:28:14.286Z,2.97
2022-10-17T12:31:05.657Z,2.33
2022-10-17T12:33:56.207Z,2.78
2022-10-17T12:36:43.422Z,2.72
2022-10-17T12:39:52.271Z,3.03
2022-10-17T12:42:51.182Z,2.50
2022-10-17T12:45:52.995Z,2.40
2022-10-17T12:49:22.558Z,2.38
2022-10-17T12:55:43.545Z,3.25
2022-10-17T12:58:31.730Z,3.15
2022-10-17T13:01:24.910Z,2.20
2022-10-17T13:04:12.910Z,3.15
2022-10-17T13:07:01.570Z,2.47
2022-10-17T13:09:50.890Z,5.68
2022-10-17T13:12:41.303Z,2.50
2022-10-17T13:15:29.454Z,2.08
2022-10-17T13:18:21.966Z,3.92
2022-10-17T13:21:16.985Z,2.00
2022-10-17T13:24:24.431Z,3.28
2022-10-17T13:27:25.466Z,4.45
2022-10-17T13:30:34.411Z,6.75
2022-10-17T13:33:35.271Z,2.60
2022-10-17T13:36:22.293Z,2.72
2022-10-17T13:39:17.220Z,2.75
2022-10-17T13:42:17.278Z,2.67
2022-10-17T13:45:04.569Z,2.28
2022-10-17T13:47:52.224Z,2.30
2022-10-17T13:50:45.372Z,2.35
2022-10-17T13:53:34.737Z,3.65
2022-10-17T13:56:29.633Z,2.10
2022-10-17T13:59:25.781Z,2.13
2022-10-17T14:02:16.867Z,2.17
2022-10-17T14:05:23.006Z,3.50
2022-10-17T14:08:22.878Z,2.20
2022-10-17T14:11:23.784Z,2.38
2022-10-17T14:14:20.107Z,4.72
2022-10-17T14:17:16.043Z,4.05
2022-10-17T14:23:31.117Z,2.40
2022-10-17T14:26:21.265Z,2.08
2022-10-17T14:29:22.142Z,2.15
2022-10-17T14:32:14.336Z,4.28
2022-10-17T14:35:19.167Z,2.35
2022-10-17T14:38:15.043Z,2.30
2022-10-17T14:44:26.688Z,2.03
2022-10-17T14:47:42.169Z,2.38
2022-10-17T14:50:30.345Z,2.38
2022-10-17T14:53:22.448Z,3.22
2022-10-17T14:56:23.658Z,2.00
2022-10-17T14:59:13.807Z,2.28
2022-10-17T15:02:05.427Z,2.25
2022-10-17T15:04:52.723Z,2.00
2022-10-17T15:07:41.246Z,2.20
2022-10-17T15:10:36.983Z,4.60
2022-10-17T15:13:29.052Z,2.47
2022-10-17T15:16:21.967Z,2.70
2022-10-17T15:19:10.945Z,2.35
2022-10-17T15:21:58.218Z,2.42
2022-10-17T15:24:47.196Z,2.65
2022-10-17T15:27:34.420Z,3.83
2022-10-17T15:30:24.131Z,2.55
2022-10-17T15:33:10.966Z,3.08
2022-10-17T15:38:50.433Z,2.20
2022-10-17T15:41:39.026Z,2.83
2022-10-17T15:44:26.307Z,2.67
2022-10-17T15:47:23.204Z,2.40
2022-10-17T15:50:15.050Z,4.18
2022-10-17T15:53:02.340Z,3.08
2022-10-17T15:55:50.871Z,2.47
2022-10-17T15:58:41.312Z,2.90
2022-10-17T16:01:30.499Z,2.53
2022-10-17T16:04:18.498Z,3.72
2022-10-17T16:07:06.246Z,2.63
2022-10-17T16:09:53.325Z,4.00
2022-10-17T16:12:41.302Z,3.60
2022-10-17T16:15:29.975Z,2.80
2022-10-17T16:18:17.212Z,2.75
2022-10-17T16:21:04.770Z,2.85
2022-10-17T16:23:52.229Z,4.00
2022-10-17T16:26:39.314Z,3.03
2022-10-17T16:29:26.671Z,4.28
2022-10-17T16:32:15.027Z,5.55
2022-10-17T16:35:02.374Z,4.43
2022-10-17T16:37:49.657Z,4.90
2022-10-17T16:40:39.359Z,5.47
2022-10-17T16:43:26.910Z,5.38
2022-10-17T16:46:13.852Z,3.47
2022-10-17T16:49:02.243Z,4.00
2022-10-17T16:51:49.223Z,3.20
2022-10-17T16:54:36.270Z,4.53
2022-10-17T16:57:23.650Z,3.97
2022-10-17T17:00:12.677Z,5.43
2022-10-17T17:02:59.825Z,3.90
2022-10-17T17:05:52.624Z,4.45
2022-10-17T17:08:39.843Z,7.28
2022-10-17T17:11:29.158Z,5.68
2022-10-17T17:14:16.338Z,7.38
2022-10-17T17:17:03.275Z,7.03
2022-10-17T17:19:50.525Z,5.88
2022-10-17T17:22:38.974Z,4.93
2022-10-17T17:25:26.185Z,5.63
2022-10-17T17:28:13.034Z,4.95
2022-10-17T17:31:00.389Z,5.65
2022-10-17T17:33:47.899Z,5.45
2022-10-17T17:36:37.293Z,5.70
2022-10-17T17:39:25.611Z,4.90
2022-10-17T17:42:12.661Z,4.60
2022-10-17T17:44:59.456Z,7.07
2022-10-17T17:47:46.703Z,4.35
2022-10-17T17:50:36.691Z,4.68
2022-10-17T17:53:23.857Z,4.72
2022-10-17T17:56:14.958Z,4.15
2022-10-17T17:59:03.240Z,3.38
2022-10-17T18:01:50.364Z,4.18
2022-10-17T18:04:37.370Z,5.70
2022-10-17T18:07:24.641Z,5.05
2022-10-17T18:13:04.107Z,7.75
2022-10-17T18:15:52.786Z,4.13
2022-10-17T18:18:41.020Z,5.18
2022-10-17T18:21:27.921Z,4.35
2022-10-17T18:24:15.079Z,4.55
2022-10-17T18:27:02.282Z,8.23
2022-10-17T18:29:51.408Z,4.88
2022-10-17T18:32:38.735Z,5.72
2022-10-17T18:35:26.084Z,4.28
2022-10-17T18:38:13.316Z,7.03
2022-10-17T18:41:04.844Z,4.60
2022-10-17T18:43:53.294Z,6.32
2022-10-17T18:46:41.750Z,7.03
2022-10-17T18:49:29.001Z,6.32
2022-10-17T18:52:15.932Z,5.72
2022-10-17T18:55:03.064Z,6.38
2022-10-17T18:57:50.559Z,5.65
2022-10-17T19:00:38.050Z,5.38
2022-10-17T19:03:26.367Z,5.78
2022-10-17T19:06:15.907Z,5.28
2022-10-17T19:09:04.935Z,5.80
2022-10-17T19:11:52.215Z,4.88
2022-10-17T19:14:39.722Z,4.97
2022-10-17T19:17:27.043Z,5.53
2022-10-17T19:20:15.478Z,4.53
2022-10-17T19:23:02.693Z,6.07
2022-10-17T19:25:49.487Z,4.47
2022-10-17T19:28:37.889Z,4.40
2022-10-17T19:31:27.385Z,7.30
2022-10-17T19:34:15.481Z,6.50
2022-10-17T19:37:04.241Z,5.97
2022-10-17T19:39:51.395Z,4.30
2022-10-17T19:42:38.489Z,5.65
2022-10-17T19:45:25.791Z,4.82
2022-10-17T19:48:12.753Z,4.15
2022-10-17T19:50:59.885Z,5.82
2022-10-17T19:53:48.847Z,4.00
2022-10-17T19:56:38.165Z,8.15
2022-10-17T19:59:26.079Z,5.53
2022-10-17T20:02:14.212Z,5.88
2022-10-17T20:05:17.476Z,4.45
2022-10-17T20:08:05.589Z,6.43
2022-10-17T20:10:54.307Z,5.47
2022-10-17T20:13:42.040Z,9.13
2022-10-17T20:16:31.011Z,5.63
2022-10-17T20:19:18.062Z,6.57
2022-10-17T20:22:05.035Z,6.93
2022-10-17T20:24:52.404Z,6.10
2022-10-17T20:27:40.936Z,4.78
2022-10-17T20:30:27.975Z,4.63
2022-10-17T20:33:15.719Z,5.63
2022-10-17T20:36:05.692Z,4.90
2022-10-17T20:38:56.100Z,5.05
2022-10-17T20:41:43.689Z,4.82
2022-10-17T20:44:32.335Z,5.18
2022-10-17T20:47:40.018Z,6.88
2022-10-17T20:50:26.382Z,6.40
2022-10-17T20:56:23.999Z,5.28
2022-10-17T20:59:16.035Z,11.93
2022-10-17T21:02:04.744Z,5.63
2022-10-17T21:04:51.835Z,4.68
2022-10-17T21:07:38.859Z,5.55
2022-10-17T21:10:36.062Z,4.70
2022-10-17T21:13:22.896Z,6.43
2022-10-17T21:16:12.283Z,5.88
2022-10-17T21:19:01.256Z,7.85
2022-10-17T21:21:48.359Z,5.82
2022-10-17T21:24:35.659Z,8.70
2022-10-17T21:27:22.651Z,6.03
2022-10-17T21:30:10.799Z,6.53
2022-10-17T21:32:58.146Z,7.63
2022-10-17T21:35:46.694Z,8.27
2022-10-17T21:38:36.670Z,8.75
2022-10-17T21:41:25.870Z,7.25
2022-10-17T21:44:14.821Z,8.73
2022-10-17T21:47:01.775Z,9.13
2022-10-17T21:49:49.081Z,9.52
2022-10-17T21:52:37.686Z,8.18
2022-10-17T21:55:24.842Z,8.98
2022-10-17T21:58:12.203Z,7.93
2022-10-17T22:01:10.480Z,7.68
2022-10-17T22:04:00.229Z,8.63
2022-10-17T22:06:50.991Z,8.93
2022-10-17T22:09:39.367Z,7.38
2022-10-17T22:12:26.940Z,7.72
2022-10-17T22:18:05.973Z,10.32
2022-10-17T22:20:53.074Z,7.20
2022-10-17T22:23:40.320Z,7.28
2022-10-17T22:26:31.062Z,7.07
2022-10-17T22:29:18.563Z,9.90
2022-10-17T22:32:05.586Z,7.53
2022-10-17T22:34:52.574Z,14.10
2022-10-17T22:37:39.842Z,12.23
2022-10-17T22:40:26.946Z,12.25
2022-10-17T22:43:15.056Z,8.88
2022-10-17T22:46:04.136Z,12.50
2022-10-17T22:48:51.418Z,8.50
2022-10-17T22:51:38.455Z,10.93
2022-10-17T22:54:25.869Z,12.00
2022-10-17T22:57:13.843Z,8.65
2022-10-17T23:00:02.159Z,11.52
2022-10-17T23:02:49.119Z,8.82
2022-10-17T23:05:36.458Z,8.63
2022-10-17T23:08:23.981Z,10.07
2022-10-17T23:11:11.825Z,8.68
2022-10-17T23:13:59.080Z,9.75
2022-10-17T23:16:47.434Z,8.90
2022-10-17T23:19:34.581Z,8.30
2022-10-17T23:22:21.466Z,9.20
2022-10-17T23:25:09.379Z,11.27
2022-10-17T23:27:56.963Z,9.15
2022-10-17T23:30:44.128Z,8.48
2022-10-17T23:33:32.719Z,10.65
2022-10-17T23:36:21.538Z,9.30
2022-10-17T23:39:08.788Z,8.98
2022-10-17T23:41:55.676Z,9.00
2022-10-17T23:44:42.890Z,7.80
2022-10-17T23:47:31.238Z,6.80
2022-10-17T23:50:19.998Z,13.93
2022-10-17T23:53:07.204Z,8.27
2022-10-17T23:55:54.461Z,7.63
2022-10-17T23:58:41.649Z,11.32
